首页
METAR-TAF:

METAR-TAF

机场 :

Chautauqua County/Dunkirk Airport

Dunkirk, 紐約州, 美国

纬度: 42-29-35N, 经度: 079-16-33W, 海拔: 211米

当前天气观测

该预报发布于12分钟前的08:53 UTC
风速10节,风向
温度 21°C
湿度 60%
气压 1015 hPa
能見度: 16.1公里
天空无云

METAR: KDKK 260853Z AUTO 19010KT 10SM CLR 21/13 A2997 RMK AO2 SLP144 T02060128 52004 $

时间: 05:05 (09:05 UTC)


TAF: 丢失

超过4000个机场的气象观测和天气预报(METAR&TAF报告)。

可查询的气象台以黄色和红色小点在地图上表示。

将鼠标移到小点上方,可查看气象台名称。

然后点击查看天气观测和预报。

如需切换地图:点击带黑十字的绿色按钮放大地图;点击带横线的绿色按钮缩小地图;或者点击绿色箭头查看邻近地区的地图。


METAR-TAF: